sensor_id;sensor_type;location;lat;lon;timestamp;P1;durP1;ratioP1;P2;durP2;ratioP2
6203;SDS011;3135;42.602;23.468;2023-11-19T00:01:26;2.67;;;1.85;;
6203;SDS011;3135;42.602;23.468;2023-11-19T00:03:51;2.92;;;1.67;;
6203;SDS011;3135;42.602;23.468;2023-11-19T00:06:18;2.40;;;1.70;;
6203;SDS011;3135;42.602;23.468;2023-11-19T00:08:44;2.70;;;1.50;;
6203;SDS011;3135;42.602;23.468;2023-11-19T00:11:09;1.77;;;1.67;;
6203;SDS011;3135;42.602;23.468;2023-11-19T00:13:34;2.20;;;1.60;;
6203;SDS011;3135;42.602;23.468;2023-11-19T00:16:00;2.08;;;1.67;;
6203;SDS011;3135;42.602;23.468;2023-11-19T00:18:25;1.88;;;1.50;;
6203;SDS011;3135;42.602;23.468;2023-11-19T00:20:51;2.13;;;1.73;;
6203;SDS011;3135;42.602;23.468;2023-11-19T00:23:16;1.97;;;1.70;;
6203;SDS011;3135;42.602;23.468;2023-11-19T00:25:42;1.77;;;1.67;;
6203;SDS011;3135;42.602;23.468;2023-11-19T00:28:07;2.80;;;1.60;;
6203;SDS011;3135;42.602;23.468;2023-11-19T00:30:33;1.70;;;1.60;;
6203;SDS011;3135;42.602;23.468;2023-11-19T00:32:58;1.75;;;1.65;;
6203;SDS011;3135;42.602;23.468;2023-11-19T00:35:23;1.90;;;1.60;;
6203;SDS011;3135;42.602;23.468;2023-11-19T00:37:49;2.17;;;1.60;;
6203;SDS011;3135;42.602;23.468;2023-11-19T00:40:15;2.73;;;1.50;;
6203;SDS011;3135;42.602;23.468;2023-11-19T00:42:43;1.70;;;1.60;;
6203;SDS011;3135;42.602;23.468;2023-11-19T00:45:08;1.60;;;1.50;;
6203;SDS011;3135;42.602;23.468;2023-11-19T00:47:35;2.70;;;1.60;;
6203;SDS011;3135;42.602;23.468;2023-11-19T00:50:01;1.80;;;1.70;;
6203;SDS011;3135;42.602;23.468;2023-11-19T00:52:27;2.00;;;1.80;;
6203;SDS011;3135;42.602;23.468;2023-11-19T00:54:53;1.50;;;1.40;;
6203;SDS011;3135;42.602;23.468;2023-11-19T00:57:18;2.67;;;1.80;;
6203;SDS011;3135;42.602;23.468;2023-11-19T00:59:44;1.90;;;1.63;;
6203;SDS011;3135;42.602;23.468;2023-11-19T01:02:10;3.55;;;1.60;;
6203;SDS011;3135;42.602;23.468;2023-11-19T01:04:36;1.83;;;1.63;;
6203;SDS011;3135;42.602;23.468;2023-11-19T01:07:02;1.75;;;1.63;;
6203;SDS011;3135;42.602;23.468;2023-11-19T01:09:34;1.60;;;1.50;;
6203;SDS011;3135;42.602;23.468;2023-11-19T01:12:01;2.95;;;1.60;;
6203;SDS011;3135;42.602;23.468;2023-11-19T01:14:27;2.15;;;1.80;;
6203;SDS011;3135;42.602;23.468;2023-11-19T01:16:53;1.75;;;1.63;;
6203;SDS011;3135;42.602;23.468;2023-11-19T01:19:21;2.40;;;1.92;;
6203;SDS011;3135;42.602;23.468;2023-11-19T01:21:48;2.10;;;1.70;;
6203;SDS011;3135;42.602;23.468;2023-11-19T01:24:14;3.20;;;2.17;;
6203;SDS011;3135;42.602;23.468;2023-11-19T01:26:39;2.23;;;1.50;;
6203;SDS011;3135;42.602;23.468;2023-11-19T01:29:10;1.98;;;1.55;;
6203;SDS011;3135;42.602;23.468;2023-11-19T01:31:38;1.97;;;1.60;;
6203;SDS011;3135;42.602;23.468;2023-11-19T01:34:04;1.80;;;1.50;;
6203;SDS011;3135;42.602;23.468;2023-11-19T01:36:30;1.70;;;1.40;;
6203;SDS011;3135;42.602;23.468;2023-11-19T01:38:55;2.75;;;1.83;;
6203;SDS011;3135;42.602;23.468;2023-11-19T01:41:21;2.63;;;1.77;;
6203;SDS011;3135;42.602;23.468;2023-11-19T01:43:46;2.00;;;1.57;;
6203;SDS011;3135;42.602;23.468;2023-11-19T01:46:12;2.80;;;1.70;;
6203;SDS011;3135;42.602;23.468;2023-11-19T01:48:41;1.42;;;1.30;;
6203;SDS011;3135;42.602;23.468;2023-11-19T01:51:09;1.67;;;1.58;;
6203;SDS011;3135;42.602;23.468;2023-11-19T01:53:36;1.87;;;1.70;;
6203;SDS011;3135;42.602;23.468;2023-11-19T01:56:05;1.88;;;1.63;;
6203;SDS011;3135;42.602;23.468;2023-11-19T01:58:38;1.90;;;1.60;;
6203;SDS011;3135;42.602;23.468;2023-11-19T02:01:05;1.63;;;1.52;;
6203;SDS011;3135;42.602;23.468;2023-11-19T02:03:32;1.77;;;1.50;;
6203;SDS011;3135;42.602;23.468;2023-11-19T02:05:58;1.95;;;1.75;;
6203;SDS011;3135;42.602;23.468;2023-11-19T02:08:25;3.17;;;1.52;;
6203;SDS011;3135;42.602;23.468;2023-11-19T02:10:51;2.85;;;1.58;;
6203;SDS011;3135;42.602;23.468;2023-11-19T02:13:17;1.63;;;1.52;;
6203;SDS011;3135;42.602;23.468;2023-11-19T02:15:43;1.75;;;1.50;;
6203;SDS011;3135;42.602;23.468;2023-11-19T02:18:18;1.57;;;1.47;;
6203;SDS011;3135;42.602;23.468;2023-11-19T02:20:47;1.77;;;1.50;;
6203;SDS011;3135;42.602;23.468;2023-11-19T02:23:16;1.63;;;1.40;;
6203;SDS011;3135;42.602;23.468;2023-11-19T02:25:42;1.98;;;1.30;;
6203;SDS011;3135;42.602;23.468;2023-11-19T02:28:12;2.30;;;1.47;;
6203;SDS011;3135;42.602;23.468;2023-11-19T02:30:38;1.70;;;1.42;;
6203;SDS011;3135;42.602;23.468;2023-11-19T02:33:03;1.77;;;1.30;;
6203;SDS011;3135;42.602;23.468;2023-11-19T02:35:33;1.67;;;1.50;;
6203;SDS011;3135;42.602;23.468;2023-11-19T02:37:59;2.30;;;1.77;;
6203;SDS011;3135;42.602;23.468;2023-11-19T02:40:29;2.03;;;1.40;;
6203;SDS011;3135;42.602;23.468;2023-11-19T02:42:54;2.15;;;1.63;;
6203;SDS011;3135;42.602;23.468;2023-11-19T02:45:22;2.03;;;1.40;;
6203;SDS011;3135;42.602;23.468;2023-11-19T02:47:48;1.95;;;1.63;;
6203;SDS011;3135;42.602;23.468;2023-11-19T02:50:14;1.85;;;1.40;;
6203;SDS011;3135;42.602;23.468;2023-11-19T02:52:43;3.13;;;1.50;;
6203;SDS011;3135;42.602;23.468;2023-11-19T02:55:12;2.83;;;1.60;;
6203;SDS011;3135;42.602;23.468;2023-11-19T02:57:38;1.48;;;1.38;;
6203;SDS011;3135;42.602;23.468;2023-11-19T03:00:11;2.63;;;1.70;;
6203;SDS011;3135;42.602;23.468;2023-11-19T03:02:41;1.65;;;1.38;;
6203;SDS011;3135;42.602;23.468;2023-11-19T03:05:12;1.40;;;1.30;;
6203;SDS011;3135;42.602;23.468;2023-11-19T03:07:40;1.95;;;1.30;;
6203;SDS011;3135;42.602;23.468;2023-11-19T03:10:07;1.30;;;1.20;;
6203;SDS011;3135;42.602;23.468;2023-11-19T03:12:34;1.52;;;1.40;;
6203;SDS011;3135;42.602;23.468;2023-11-19T03:15:00;1.98;;;1.42;;
6203;SDS011;3135;42.602;23.468;2023-11-19T03:17:26;1.57;;;1.33;;
6203;SDS011;3135;42.602;23.468;2023-11-19T03:19:51;1.40;;;1.30;;
6203;SDS011;3135;42.602;23.468;2023-11-19T03:22:17;1.65;;;1.30;;
6203;SDS011;3135;42.602;23.468;2023-11-19T03:24:42;1.45;;;1.35;;
6203;SDS011;3135;42.602;23.468;2023-11-19T03:27:07;1.40;;;1.30;;
6203;SDS011;3135;42.602;23.468;2023-11-19T03:29:33;1.63;;;1.37;;
6203;SDS011;3135;42.602;23.468;2023-11-19T03:31:58;2.10;;;1.50;;
6203;SDS011;3135;42.602;23.468;2023-11-19T03:34:23;2.60;;;1.50;;
6203;SDS011;3135;42.602;23.468;2023-11-19T03:36:49;1.30;;;1.20;;
6203;SDS011;3135;42.602;23.468;2023-11-19T03:39:14;1.37;;;1.27;;
6203;SDS011;3135;42.602;23.468;2023-11-19T03:41:40;1.43;;;1.17;;
6203;SDS011;3135;42.602;23.468;2023-11-19T03:44:05;1.90;;;1.47;;
6203;SDS011;3135;42.602;23.468;2023-11-19T03:46:31;1.60;;;1.30;;
6203;SDS011;3135;42.602;23.468;2023-11-19T03:48:56;1.63;;;1.40;;
6203;SDS011;3135;42.602;23.468;2023-11-19T03:51:22;1.97;;;1.50;;
6203;SDS011;3135;42.602;23.468;2023-11-19T03:53:47;2.13;;;1.50;;
6203;SDS011;3135;42.602;23.468;2023-11-19T03:56:13;1.40;;;1.15;;
6203;SDS011;3135;42.602;23.468;2023-11-19T03:58:38;1.10;;;1.00;;
6203;SDS011;3135;42.602;23.468;2023-11-19T04:01:04;1.63;;;1.40;;
6203;SDS011;3135;42.602;23.468;2023-11-19T04:03:30;1.90;;;1.30;;
6203;SDS011;3135;42.602;23.468;2023-11-19T04:05:56;1.40;;;1.30;;
6203;SDS011;3135;42.602;23.468;2023-11-19T04:08:21;1.30;;;1.20;;
6203;SDS011;3135;42.602;23.468;2023-11-19T04:10:47;2.03;;;1.40;;
6203;SDS011;3135;42.602;23.468;2023-11-19T04:13:13;1.73;;;1.30;;
6203;SDS011;3135;42.602;23.468;2023-11-19T04:15:38;1.60;;;1.50;;
6203;SDS011;3135;42.602;23.468;2023-11-19T04:18:04;2.70;;;1.47;;
6203;SDS011;3135;42.602;23.468;2023-11-19T04:20:29;1.40;;;1.30;;
6203;SDS011;3135;42.602;23.468;2023-11-19T04:22:55;1.67;;;1.40;;
6203;SDS011;3135;42.602;23.468;2023-11-19T04:25:21;1.43;;;1.30;;
6203;SDS011;3135;42.602;23.468;2023-11-19T04:27:46;2.65;;;1.30;;
6203;SDS011;3135;42.602;23.468;2023-11-19T04:30:13;1.88;;;1.63;;
6203;SDS011;3135;42.602;23.468;2023-11-19T04:32:38;1.70;;;1.60;;
6203;SDS011;3135;42.602;23.468;2023-11-19T04:35:04;1.90;;;1.57;;
6203;SDS011;3135;42.602;23.468;2023-11-19T04:37:31;2.93;;;1.40;;
6203;SDS011;3135;42.602;23.468;2023-11-19T04:39:57;1.98;;;1.50;;
6203;SDS011;3135;42.602;23.468;2023-11-19T04:42:22;2.00;;;1.38;;
6203;SDS011;3135;42.602;23.468;2023-11-19T04:44:48;2.15;;;1.58;;
6203;SDS011;3135;42.602;23.468;2023-11-19T04:47:13;2.90;;;1.70;;
6203;SDS011;3135;42.602;23.468;2023-11-19T04:49:42;1.60;;;1.50;;
6203;SDS011;3135;42.602;23.468;2023-11-19T04:52:08;1.52;;;1.40;;
6203;SDS011;3135;42.602;23.468;2023-11-19T04:54:33;1.93;;;1.60;;
6203;SDS011;3135;42.602;23.468;2023-11-19T04:56:59;1.73;;;1.60;;
6203;SDS011;3135;42.602;23.468;2023-11-19T04:59:24;1.53;;;1.43;;
6203;SDS011;3135;42.602;23.468;2023-11-19T05:01:50;2.00;;;1.40;;
6203;SDS011;3135;42.602;23.468;2023-11-19T05:04:15;1.58;;;1.35;;
6203;SDS011;3135;42.602;23.468;2023-11-19T05:06:44;1.98;;;1.55;;
6203;SDS011;3135;42.602;23.468;2023-11-19T05:09:09;3.53;;;1.48;;
6203;SDS011;3135;42.602;23.468;2023-11-19T05:11:38;1.50;;;1.37;;
6203;SDS011;3135;42.602;23.468;2023-11-19T05:14:04;1.50;;;1.40;;
6203;SDS011;3135;42.602;23.468;2023-11-19T05:16:30;2.45;;;1.52;;
6203;SDS011;3135;42.602;23.468;2023-11-19T05:18:55;1.50;;;1.40;;
6203;SDS011;3135;42.602;23.468;2023-11-19T05:21:21;1.40;;;1.30;;
6203;SDS011;3135;42.602;23.468;2023-11-19T05:23:46;2.38;;;1.60;;
6203;SDS011;3135;42.602;23.468;2023-11-19T05:26:21;1.38;;;1.20;;
6203;SDS011;3135;42.602;23.468;2023-11-19T05:28:48;1.70;;;1.27;;
6203;SDS011;3135;42.602;23.468;2023-11-19T05:31:14;2.38;;;1.40;;
6203;SDS011;3135;42.602;23.468;2023-11-19T05:33:40;2.50;;;1.60;;
6203;SDS011;3135;42.602;23.468;2023-11-19T05:36:06;1.70;;;1.30;;
6203;SDS011;3135;42.602;23.468;2023-11-19T05:38:33;1.58;;;1.25;;
6203;SDS011;3135;42.602;23.468;2023-11-19T05:40:59;1.30;;;1.20;;
6203;SDS011;3135;42.602;23.468;2023-11-19T05:43:24;1.40;;;1.30;;
6203;SDS011;3135;42.602;23.468;2023-11-19T05:45:50;1.30;;;1.10;;
6203;SDS011;3135;42.602;23.468;2023-11-19T05:48:15;1.50;;;1.20;;
6203;SDS011;3135;42.602;23.468;2023-11-19T05:50:41;1.20;;;1.00;;
6203;SDS011;3135;42.602;23.468;2023-11-19T05:53:07;1.50;;;1.10;;
6203;SDS011;3135;42.602;23.468;2023-11-19T05:55:35;1.48;;;1.38;;
6203;SDS011;3135;42.602;23.468;2023-11-19T05:58:02;1.57;;;1.40;;
6203;SDS011;3135;42.602;23.468;2023-11-19T06:00:29;2.33;;;1.30;;
6203;SDS011;3135;42.602;23.468;2023-11-19T06:02:55;1.77;;;1.50;;
6203;SDS011;3135;42.602;23.468;2023-11-19T06:05:21;1.33;;;1.07;;
6203;SDS011;3135;42.602;23.468;2023-11-19T06:07:46;1.70;;;1.30;;
6203;SDS011;3135;42.602;23.468;2023-11-19T06:10:12;1.73;;;1.63;;
6203;SDS011;3135;42.602;23.468;2023-11-19T06:12:41;2.17;;;1.63;;
6203;SDS011;3135;42.602;23.468;2023-11-19T06:15:07;2.20;;;1.45;;
6203;SDS011;3135;42.602;23.468;2023-11-19T06:17:33;2.13;;;1.35;;
6203;SDS011;3135;42.602;23.468;2023-11-19T06:19:59;1.77;;;1.52;;
6203;SDS011;3135;42.602;23.468;2023-11-19T06:22:25;2.65;;;1.60;;
6203;SDS011;3135;42.602;23.468;2023-11-19T06:24:50;2.20;;;1.40;;
6203;SDS011;3135;42.602;23.468;2023-11-19T06:27:15;3.00;;;1.67;;
6203;SDS011;3135;42.602;23.468;2023-11-19T06:29:41;1.40;;;1.30;;
6203;SDS011;3135;42.602;23.468;2023-11-19T06:32:07;1.97;;;1.43;;
6203;SDS011;3135;42.602;23.468;2023-11-19T06:34:33;2.17;;;1.60;;
6203;SDS011;3135;42.602;23.468;2023-11-19T06:36:59;2.80;;;1.42;;
6203;SDS011;3135;42.602;23.468;2023-11-19T06:39:24;2.27;;;1.70;;
6203;SDS011;3135;42.602;23.468;2023-11-19T06:41:50;1.85;;;1.33;;
6203;SDS011;3135;42.602;23.468;2023-11-19T06:44:16;2.00;;;1.40;;
6203;SDS011;3135;42.602;23.468;2023-11-19T06:46:41;1.47;;;1.37;;
6203;SDS011;3135;42.602;23.468;2023-11-19T06:49:06;2.50;;;1.70;;
6203;SDS011;3135;42.602;23.468;2023-11-19T06:51:35;1.65;;;1.48;;
6203;SDS011;3135;42.602;23.468;2023-11-19T06:54:00;2.67;;;1.50;;
6203;SDS011;3135;42.602;23.468;2023-11-19T06:56:26;2.43;;;1.50;;
6203;SDS011;3135;42.602;23.468;2023-11-19T06:58:51;1.77;;;1.60;;
6203;SDS011;3135;42.602;23.468;2023-11-19T07:01:17;2.07;;;1.73;;
6203;SDS011;3135;42.602;23.468;2023-11-19T07:03:46;2.55;;;1.50;;
6203;SDS011;3135;42.602;23.468;2023-11-19T07:06:12;1.90;;;1.60;;
6203;SDS011;3135;42.602;23.468;2023-11-19T07:08:39;3.85;;;1.65;;
6203;SDS011;3135;42.602;23.468;2023-11-19T07:11:06;3.20;;;1.80;;
6203;SDS011;3135;42.602;23.468;2023-11-19T07:13:31;2.20;;;1.50;;
6203;SDS011;3135;42.602;23.468;2023-11-19T07:15:57;2.30;;;1.67;;
6203;SDS011;3135;42.602;23.468;2023-11-19T07:18:23;3.30;;;1.60;;
6203;SDS011;3135;42.602;23.468;2023-11-19T07:20:48;2.47;;;1.60;;
6203;SDS011;3135;42.602;23.468;2023-11-19T07:23:14;3.33;;;1.70;;
6203;SDS011;3135;42.602;23.468;2023-11-19T07:25:42;2.58;;;1.73;;
6203;SDS011;3135;42.602;23.468;2023-11-19T07:28:09;1.75;;;1.63;;
6203;SDS011;3135;42.602;23.468;2023-11-19T07:30:35;3.27;;;2.00;;
6203;SDS011;3135;42.602;23.468;2023-11-19T07:33:01;2.65;;;1.90;;
6203;SDS011;3135;42.602;23.468;2023-11-19T07:35:31;1.40;;;1.30;;
6203;SDS011;3135;42.602;23.468;2023-11-19T07:37:57;1.98;;;1.63;;
6203;SDS011;3135;42.602;23.468;2023-11-19T07:40:23;2.40;;;1.80;;
6203;SDS011;3135;42.602;23.468;2023-11-19T07:42:51;1.67;;;1.52;;
6203;SDS011;3135;42.602;23.468;2023-11-19T07:45:17;1.80;;;1.57;;
6203;SDS011;3135;42.602;23.468;2023-11-19T07:47:42;1.77;;;1.50;;
6203;SDS011;3135;42.602;23.468;2023-11-19T07:50:09;2.58;;;1.90;;
6203;SDS011;3135;42.602;23.468;2023-11-19T07:52:36;1.70;;;1.60;;
6203;SDS011;3135;42.602;23.468;2023-11-19T07:55:02;2.03;;;1.60;;
6203;SDS011;3135;42.602;23.468;2023-11-19T07:57:28;2.03;;;1.80;;
6203;SDS011;3135;42.602;23.468;2023-11-19T07:59:56;2.22;;;1.50;;
6203;SDS011;3135;42.602;23.468;2023-11-19T08:02:21;2.05;;;1.48;;
6203;SDS011;3135;42.602;23.468;2023-11-19T08:04:48;1.70;;;1.58;;
6203;SDS011;3135;42.602;23.468;2023-11-19T08:07:16;3.33;;;1.73;;
6203;SDS011;3135;42.602;23.468;2023-11-19T08:09:42;2.45;;;1.85;;
6203;SDS011;3135;42.602;23.468;2023-11-19T08:12:08;2.33;;;1.60;;
6203;SDS011;3135;42.602;23.468;2023-11-19T08:14:34;2.17;;;1.50;;
6203;SDS011;3135;42.602;23.468;2023-11-19T08:17:01;1.80;;;1.63;;
6203;SDS011;3135;42.602;23.468;2023-11-19T08:19:27;1.77;;;1.63;;
6203;SDS011;3135;42.602;23.468;2023-11-19T08:21:53;1.85;;;1.42;;
6203;SDS011;3135;42.602;23.468;2023-11-19T08:24:18;2.33;;;1.70;;
6203;SDS011;3135;42.602;23.468;2023-11-19T08:26:44;2.67;;;1.63;;
6203;SDS011;3135;42.602;23.468;2023-11-19T08:29:09;1.57;;;1.40;;
6203;SDS011;3135;42.602;23.468;2023-11-19T08:31:35;1.63;;;1.50;;
6203;SDS011;3135;42.602;23.468;2023-11-19T08:34:00;3.22;;;1.55;;
6203;SDS011;3135;42.602;23.468;2023-11-19T08:36:26;2.38;;;1.60;;
6203;SDS011;3135;42.602;23.468;2023-11-19T08:38:53;1.80;;;1.70;;
6203;SDS011;3135;42.602;23.468;2023-11-19T08:41:18;2.38;;;1.67;;
6203;SDS011;3135;42.602;23.468;2023-11-19T08:43:44;2.70;;;1.83;;
6203;SDS011;3135;42.602;23.468;2023-11-19T08:46:10;2.70;;;2.03;;
6203;SDS011;3135;42.602;23.468;2023-11-19T08:48:36;2.63;;;1.80;;
6203;SDS011;3135;42.602;23.468;2023-11-19T08:51:02;1.98;;;1.77;;
6203;SDS011;3135;42.602;23.468;2023-11-19T08:53:27;3.00;;;1.70;;
6203;SDS011;3135;42.602;23.468;2023-11-19T08:55:53;2.40;;;1.65;;
6203;SDS011;3135;42.602;23.468;2023-11-19T08:58:18;2.28;;;2.08;;
6203;SDS011;3135;42.602;23.468;2023-11-19T09:00:44;1.88;;;1.60;;
6203;SDS011;3135;42.602;23.468;2023-11-19T09:03:09;3.27;;;1.80;;
6203;SDS011;3135;42.602;23.468;2023-11-19T09:05:34;2.17;;;1.90;;
6203;SDS011;3135;42.602;23.468;2023-11-19T09:08:00;2.07;;;1.70;;
6203;SDS011;3135;42.602;23.468;2023-11-19T09:10:25;2.33;;;1.90;;
6203;SDS011;3135;42.602;23.468;2023-11-19T09:12:52;2.95;;;1.55;;
6203;SDS011;3135;42.602;23.468;2023-11-19T09:15:17;1.93;;;1.67;;
6203;SDS011;3135;42.602;23.468;2023-11-19T09:17:43;2.47;;;1.63;;
6203;SDS011;3135;42.602;23.468;2023-11-19T09:20:08;1.67;;;1.58;;
6203;SDS011;3135;42.602;23.468;2023-11-19T09:22:37;2.03;;;1.50;;
6203;SDS011;3135;42.602;23.468;2023-11-19T09:25:02;1.57;;;1.40;;
6203;SDS011;3135;42.602;23.468;2023-11-19T09:27:30;2.17;;;1.35;;
6203;SDS011;3135;42.602;23.468;2023-11-19T09:29:55;3.07;;;1.57;;
6203;SDS011;3135;42.602;23.468;2023-11-19T09:32:23;3.22;;;1.77;;
6203;SDS011;3135;42.602;23.468;2023-11-19T09:34:48;2.37;;;1.70;;
6203;SDS011;3135;42.602;23.468;2023-11-19T09:37:14;4.10;;;1.70;;
6203;SDS011;3135;42.602;23.468;2023-11-19T09:39:39;2.03;;;1.67;;
6203;SDS011;3135;42.602;23.468;2023-11-19T09:42:08;1.80;;;1.70;;
6203;SDS011;3135;42.602;23.468;2023-11-19T09:44:34;2.15;;;1.95;;
6203;SDS011;3135;42.602;23.468;2023-11-19T09:47:00;1.50;;;1.30;;
6203;SDS011;3135;42.602;23.468;2023-11-19T09:49:26;2.08;;;1.40;;
6203;SDS011;3135;42.602;23.468;2023-11-19T09:51:52;2.27;;;1.73;;
6203;SDS011;3135;42.602;23.468;2023-11-19T09:54:18;3.25;;;1.73;;
6203;SDS011;3135;42.602;23.468;2023-11-19T09:56:43;2.57;;;1.53;;
6203;SDS011;3135;42.602;23.468;2023-11-19T09:59:09;3.67;;;1.93;;
6203;SDS011;3135;42.602;23.468;2023-11-19T10:01:38;2.80;;;1.80;;
6203;SDS011;3135;42.602;23.468;2023-11-19T10:04:03;1.88;;;1.67;;
6203;SDS011;3135;42.602;23.468;2023-11-19T10:06:31;2.00;;;1.50;;
6203;SDS011;3135;42.602;23.468;2023-11-19T10:08:56;2.72;;;1.88;;
6203;SDS011;3135;42.602;23.468;2023-11-19T10:11:22;3.15;;;1.73;;
6203;SDS011;3135;42.602;23.468;2023-11-19T10:13:47;1.80;;;1.43;;
6203;SDS011;3135;42.602;23.468;2023-11-19T10:16:14;2.22;;;1.70;;
6203;SDS011;3135;42.602;23.468;2023-11-19T10:18:46;2.80;;;2.00;;
6203;SDS011;3135;42.602;23.468;2023-11-19T10:21:13;2.50;;;2.00;;
6203;SDS011;3135;42.602;23.468;2023-11-19T10:23:49;3.05;;;1.70;;
6203;SDS011;3135;42.602;23.468;2023-11-19T10:26:16;1.77;;;1.50;;
6203;SDS011;3135;42.602;23.468;2023-11-19T10:28:42;1.57;;;1.47;;
6203;SDS011;3135;42.602;23.468;2023-11-19T10:31:11;2.60;;;1.70;;
6203;SDS011;3135;42.602;23.468;2023-11-19T10:33:41;2.43;;;2.03;;
6203;SDS011;3135;42.602;23.468;2023-11-19T10:36:07;5.27;;;2.33;;
6203;SDS011;3135;42.602;23.468;2023-11-19T10:38:33;2.50;;;1.60;;
6203;SDS011;3135;42.602;23.468;2023-11-19T10:40:58;1.70;;;1.60;;
6203;SDS011;3135;42.602;23.468;2023-11-19T10:43:24;2.07;;;1.87;;
6203;SDS011;3135;42.602;23.468;2023-11-19T10:45:50;1.67;;;1.58;;
6203;SDS011;3135;42.602;23.468;2023-11-19T10:48:16;2.10;;;1.40;;
6203;SDS011;3135;42.602;23.468;2023-11-19T10:50:42;2.70;;;1.77;;
6203;SDS011;3135;42.602;23.468;2023-11-19T10:53:10;2.42;;;2.10;;
6203;SDS011;3135;42.602;23.468;2023-11-19T10:55:39;2.72;;;1.73;;
6203;SDS011;3135;42.602;23.468;2023-11-19T10:58:05;2.00;;;1.50;;
6203;SDS011;3135;42.602;23.468;2023-11-19T11:00:39;1.92;;;1.60;;
6203;SDS011;3135;42.602;23.468;2023-11-19T11:03:15;1.40;;;1.30;;
6203;SDS011;3135;42.602;23.468;2023-11-19T11:05:41;1.70;;;1.60;;
6203;SDS011;3135;42.602;23.468;2023-11-19T11:08:07;1.60;;;1.50;;
6203;SDS011;3135;42.602;23.468;2023-11-19T11:10:35;1.35;;;1.17;;
6203;SDS011;3135;42.602;23.468;2023-11-19T11:13:04;2.28;;;1.50;;
6203;SDS011;3135;42.602;23.468;2023-11-19T11:15:30;1.55;;;1.30;;
6203;SDS011;3135;42.602;23.468;2023-11-19T11:18:00;2.55;;;1.55;;
6203;SDS011;3135;42.602;23.468;2023-11-19T11:20:30;1.65;;;1.50;;
6203;SDS011;3135;42.602;23.468;2023-11-19T11:28:18;1.90;;;1.60;;
6203;SDS011;3135;42.602;23.468;2023-11-19T11:30:59;7.10;;;2.78;;
6203;SDS011;3135;42.602;23.468;2023-11-19T11:33:48;1.58;;;1.45;;
6203;SDS011;3135;42.602;23.468;2023-11-19T11:36:21;3.27;;;1.53;;
6203;SDS011;3135;42.602;23.468;2023-11-19T11:38:48;1.48;;;1.30;;
6203;SDS011;3135;42.602;23.468;2023-11-19T11:41:21;2.00;;;1.40;;
6203;SDS011;3135;42.602;23.468;2023-11-19T11:43:49;1.50;;;1.40;;
6203;SDS011;3135;42.602;23.468;2023-11-19T11:49:03;2.70;;;1.33;;
6203;SDS011;3135;42.602;23.468;2023-11-19T11:54:31;4.80;;;2.00;;
6203;SDS011;3135;42.602;23.468;2023-11-19T12:02:14;2.22;;;1.70;;
6203;SDS011;3135;42.602;23.468;2023-11-19T12:04:41;2.03;;;1.55;;
6203;SDS011;3135;42.602;23.468;2023-11-19T12:07:15;2.35;;;1.50;;
6203;SDS011;3135;42.602;23.468;2023-11-19T12:09:46;1.63;;;1.25;;
6203;SDS011;3135;42.602;23.468;2023-11-19T12:12:20;1.40;;;1.30;;
6203;SDS011;3135;42.602;23.468;2023-11-19T12:14:59;1.80;;;1.30;;
6203;SDS011;3135;42.602;23.468;2023-11-19T12:19:59;3.38;;;1.83;;
6203;SDS011;3135;42.602;23.468;2023-11-19T12:22:43;1.88;;;1.70;;
6203;SDS011;3135;42.602;23.468;2023-11-19T12:25:10;2.70;;;2.00;;
6203;SDS011;3135;42.602;23.468;2023-11-19T12:27:37;2.45;;;1.88;;
6203;SDS011;3135;42.602;23.468;2023-11-19T12:30:05;2.22;;;1.77;;
6203;SDS011;3135;42.602;23.468;2023-11-19T12:32:37;3.65;;;2.38;;
6203;SDS011;3135;42.602;23.468;2023-11-19T12:35:07;2.63;;;2.00;;
6203;SDS011;3135;42.602;23.468;2023-11-19T12:37:57;4.22;;;1.83;;
6203;SDS011;3135;42.602;23.468;2023-11-19T12:40:25;3.38;;;2.00;;
6203;SDS011;3135;42.602;23.468;2023-11-19T12:42:51;2.13;;;1.73;;
6203;SDS011;3135;42.602;23.468;2023-11-19T12:45:18;1.40;;;1.30;;
6203;SDS011;3135;42.602;23.468;2023-11-19T12:47:46;3.08;;;1.90;;
6203;SDS011;3135;42.602;23.468;2023-11-19T12:50:16;2.45;;;2.25;;
6203;SDS011;3135;42.602;23.468;2023-11-19T12:52:47;4.82;;;2.20;;
6203;SDS011;3135;42.602;23.468;2023-11-19T12:55:25;3.30;;;2.20;;
6203;SDS011;3135;42.602;23.468;2023-11-19T12:57:52;2.17;;;1.73;;
6203;SDS011;3135;42.602;23.468;2023-11-19T13:00:19;4.00;;;2.20;;
6203;SDS011;3135;42.602;23.468;2023-11-19T13:02:50;3.60;;;2.03;;
6203;SDS011;3135;42.602;23.468;2023-11-19T13:07:58;3.00;;;2.10;;
6203;SDS011;3135;42.602;23.468;2023-11-19T13:10:24;3.97;;;2.17;;
6203;SDS011;3135;42.602;23.468;2023-11-19T13:15:45;7.90;;;3.85;;
6203;SDS011;3135;42.602;23.468;2023-11-19T13:18:11;9.70;;;5.82;;
6203;SDS011;3135;42.602;23.468;2023-11-19T13:20:40;3.50;;;2.77;;
6203;SDS011;3135;42.602;23.468;2023-11-19T13:23:05;3.30;;;2.80;;
6203;SDS011;3135;42.602;23.468;2023-11-19T13:25:35;4.93;;;2.85;;
6203;SDS011;3135;42.602;23.468;2023-11-19T13:28:01;6.43;;;4.00;;
6203;SDS011;3135;42.602;23.468;2023-11-19T13:30:27;4.63;;;3.75;;
6203;SDS011;3135;42.602;23.468;2023-11-19T13:32:52;4.83;;;3.03;;
6203;SDS011;3135;42.602;23.468;2023-11-19T13:35:20;5.78;;;1.90;;
6203;SDS011;3135;42.602;23.468;2023-11-19T13:37:46;2.60;;;1.85;;
6203;SDS011;3135;42.602;23.468;2023-11-19T13:40:12;3.23;;;2.13;;
6203;SDS011;3135;42.602;23.468;2023-11-19T13:42:44;4.03;;;3.03;;
6203;SDS011;3135;42.602;23.468;2023-11-19T13:45:10;4.27;;;2.40;;
6203;SDS011;3135;42.602;23.468;2023-11-19T13:47:40;3.30;;;2.13;;
6203;SDS011;3135;42.602;23.468;2023-11-19T13:50:13;3.90;;;2.20;;
6203;SDS011;3135;42.602;23.468;2023-11-19T13:52:41;2.95;;;1.98;;
6203;SDS011;3135;42.602;23.468;2023-11-19T13:55:08;3.67;;;2.22;;
6203;SDS011;3135;42.602;23.468;2023-11-19T13:57:38;4.18;;;1.95;;
6203;SDS011;3135;42.602;23.468;2023-11-19T14:00:08;2.97;;;2.08;;
6203;SDS011;3135;42.602;23.468;2023-11-19T14:02:41;2.65;;;1.85;;
6203;SDS011;3135;42.602;23.468;2023-11-19T14:05:07;3.13;;;1.95;;
6203;SDS011;3135;42.602;23.468;2023-11-19T14:07:33;2.08;;;1.83;;
6203;SDS011;3135;42.602;23.468;2023-11-19T14:10:00;35.20;;;11.23;;
6203;SDS011;3135;42.602;23.468;2023-11-19T14:12:26;105.07;;;22.58;;
6203;SDS011;3135;42.602;23.468;2023-11-19T14:14:51;182.90;;;38.70;;
6203;SDS011;3135;42.602;23.468;2023-11-19T14:17:17;45.97;;;12.20;;
6203;SDS011;3135;42.602;23.468;2023-11-19T14:19:43;17.38;;;8.52;;
6203;SDS011;3135;42.602;23.468;2023-11-19T14:22:09;8.52;;;3.78;;
6203;SDS011;3135;42.602;23.468;2023-11-19T14:24:35;13.70;;;7.13;;
6203;SDS011;3135;42.602;23.468;2023-11-19T14:27:00;18.13;;;10.60;;
6203;SDS011;3135;42.602;23.468;2023-11-19T14:29:26;19.02;;;9.88;;
6203;SDS011;3135;42.602;23.468;2023-11-19T14:31:54;13.48;;;7.90;;
6203;SDS011;3135;42.602;23.468;2023-11-19T14:34:20;23.42;;;14.63;;
6203;SDS011;3135;42.602;23.468;2023-11-19T14:36:45;26.23;;;14.23;;
6203;SDS011;3135;42.602;23.468;2023-11-19T14:39:12;14.10;;;9.07;;
6203;SDS011;3135;42.602;23.468;2023-11-19T14:41:37;14.38;;;8.82;;
6203;SDS011;3135;42.602;23.468;2023-11-19T14:44:04;6.03;;;4.10;;
6203;SDS011;3135;42.602;23.468;2023-11-19T14:46:29;4.65;;;2.92;;
6203;SDS011;3135;42.602;23.468;2023-11-19T14:48:55;8.03;;;3.20;;
6203;SDS011;3135;42.602;23.468;2023-11-19T14:51:20;9.00;;;3.27;;
6203;SDS011;3135;42.602;23.468;2023-11-19T14:53:46;6.20;;;3.00;;
6203;SDS011;3135;42.602;23.468;2023-11-19T14:56:12;7.85;;;2.80;;
6203;SDS011;3135;42.602;23.468;2023-11-19T14:58:38;4.53;;;2.57;;
6203;SDS011;3135;42.602;23.468;2023-11-19T15:01:04;4.70;;;2.30;;
6203;SDS011;3135;42.602;23.468;2023-11-19T15:03:30;5.50;;;2.38;;
6203;SDS011;3135;42.602;23.468;2023-11-19T15:05:56;3.10;;;2.30;;
6203;SDS011;3135;42.602;23.468;2023-11-19T15:08:21;5.70;;;3.57;;
6203;SDS011;3135;42.602;23.468;2023-11-19T15:10:47;6.80;;;3.00;;
6203;SDS011;3135;42.602;23.468;2023-11-19T15:13:12;6.03;;;3.23;;
6203;SDS011;3135;42.602;23.468;2023-11-19T15:15:38;7.70;;;4.30;;
6203;SDS011;3135;42.602;23.468;2023-11-19T15:18:07;34.88;;;14.73;;
6203;SDS011;3135;42.602;23.468;2023-11-19T15:20:32;27.10;;;13.50;;
6203;SDS011;3135;42.602;23.468;2023-11-19T15:22:58;11.33;;;5.00;;